createdAt,value
2024-05-09T00:01:14.260Z,12.00
2024-05-09T00:03:44.796Z,12.00
2024-05-09T00:06:17.480Z,12.00
2024-05-09T00:08:47.803Z,12.10
2024-05-09T00:11:17.898Z,12.10
2024-05-09T00:13:47.936Z,12.10
2024-05-09T00:16:17.849Z,12.10
2024-05-09T00:18:47.852Z,12.10
2024-05-09T00:21:20.519Z,12.10
2024-05-09T00:23:50.374Z,12.10
2024-05-09T00:26:20.240Z,12.10
2024-05-09T00:28:50.232Z,12.10
2024-05-09T00:31:20.082Z,12.10
2024-05-09T00:33:50.355Z,12.00
2024-05-09T00:36:22.938Z,12.00
2024-05-09T00:38:53.141Z,12.10
2024-05-09T00:41:23.014Z,12.10
2024-05-09T00:43:52.886Z,12.00
2024-05-09T00:46:23.577Z,11.90
2024-05-09T00:48:53.848Z,11.90
2024-05-09T00:51:26.437Z,11.80
2024-05-09T00:53:56.388Z,11.80
2024-05-09T00:56:26.435Z,11.80
2024-05-09T00:58:58.047Z,11.80
2024-05-09T01:01:28.600Z,11.70
2024-05-09T01:03:59.265Z,11.70
2024-05-09T01:06:31.930Z,11.60
2024-05-09T01:09:01.965Z,11.60
2024-05-09T01:11:38.691Z,11.50
2024-05-09T01:14:09.012Z,11.50
2024-05-09T01:16:38.985Z,11.40
2024-05-09T01:19:17.230Z,11.30
2024-05-09T01:21:50.180Z,11.20
2024-05-09T01:24:22.770Z,11.10
2024-05-09T01:26:53.138Z,11.00
2024-05-09T01:29:23.183Z,11.00
2024-05-09T01:31:54.370Z,10.90
2024-05-09T01:34:24.772Z,10.80
2024-05-09T01:36:54.591Z,10.80
2024-05-09T01:39:27.642Z,10.80
2024-05-09T01:41:57.560Z,10.70
2024-05-09T01:44:28.657Z,10.70
2024-05-09T01:46:58.593Z,10.60
2024-05-09T01:49:29.428Z,10.70
2024-05-09T01:51:59.317Z,10.60
2024-05-09T01:54:31.868Z,10.60
2024-05-09T01:57:01.934Z,10.50
2024-05-09T01:59:32.301Z,10.50
2024-05-09T02:02:02.509Z,10.60
2024-05-09T02:04:33.318Z,10.60
2024-05-09T02:07:03.284Z,10.70
2024-05-09T02:09:36.245Z,10.70
2024-05-09T02:12:06.556Z,10.70
2024-05-09T02:14:36.754Z,10.70
2024-05-09T02:17:07.065Z,10.70
2024-05-09T02:19:37.547Z,10.70
2024-05-09T02:22:07.651Z,10.70
2024-05-09T02:24:40.499Z,10.80
2024-05-09T02:27:10.344Z,10.80
2024-05-09T02:29:40.595Z,10.80
2024-05-09T02:32:10.726Z,10.80
2024-05-09T02:34:43.466Z,10.80
2024-05-09T02:37:13.357Z,10.70
2024-05-09T02:39:43.564Z,10.70
2024-05-09T02:42:13.424Z,10.60
2024-05-09T02:44:40.687Z,10.60
2024-05-09T02:47:10.634Z,10.60
2024-05-09T02:49:38.966Z,10.60
2024-05-09T02:52:09.061Z,10.70
2024-05-09T02:54:36.697Z,10.70
2024-05-09T02:57:09.313Z,10.70
2024-05-09T02:59:36.628Z,10.80
2024-05-09T03:02:07.289Z,10.80
2024-05-09T03:04:34.892Z,10.80
2024-05-09T03:07:04.863Z,10.90
2024-05-09T03:09:32.186Z,10.90
2024-05-09T03:12:02.418Z,10.90
2024-05-09T03:14:32.400Z,10.90
2024-05-09T03:17:02.323Z,10.90
2024-05-09T03:19:29.740Z,10.90
2024-05-09T03:22:02.368Z,10.90
2024-05-09T03:24:29.650Z,11.00
2024-05-09T03:27:00.153Z,10.90
2024-05-09T03:29:27.633Z,11.00
2024-05-09T03:32:01.775Z,11.00
2024-05-09T03:34:29.125Z,10.90
2024-05-09T03:36:59.618Z,10.90
2024-05-09T03:39:29.431Z,10.90
2024-05-09T03:41:59.771Z,10.90
2024-05-09T03:44:29.695Z,10.90
2024-05-09T03:47:02.602Z,10.90
2024-05-09T03:49:29.905Z,10.90
2024-05-09T03:52:04.906Z,10.90
2024-05-09T03:54:32.341Z,10.90
2024-05-09T03:57:02.989Z,10.80
2024-05-09T03:59:30.304Z,10.70
2024-05-09T04:02:03.315Z,10.70
2024-05-09T04:04:30.630Z,10.70
2024-05-09T04:07:00.536Z,10.70
2024-05-09T04:09:27.769Z,10.60
2024-05-09T04:11:57.746Z,10.50
2024-05-09T04:14:25.083Z,10.60
2024-05-09T04:16:55.360Z,10.60
2024-05-09T04:19:25.628Z,10.60
2024-05-09T04:21:56.423Z,10.50
2024-05-09T04:24:23.647Z,10.50
2024-05-09T04:26:53.663Z,10.50
2024-05-09T04:29:20.960Z,10.50
2024-05-09T04:31:50.943Z,10.60
2024-05-09T04:34:18.908Z,10.60
2024-05-09T04:36:51.498Z,10.70
2024-05-09T04:39:19.078Z,10.70
2024-05-09T04:41:48.920Z,10.70
2024-05-09T04:44:16.350Z,10.60
2024-05-09T04:46:46.673Z,10.60
2024-05-09T04:49:14.347Z,10.60
2024-05-09T04:51:44.513Z,10.60
2024-05-09T04:54:26.017Z,10.60
2024-05-09T04:57:03.591Z,10.70
2024-05-09T04:59:31.336Z,10.70
2024-05-09T05:02:02.000Z,10.70
2024-05-09T05:04:29.811Z,10.80
2024-05-09T05:07:02.524Z,10.80
2024-05-09T05:09:32.831Z,10.80
2024-05-09T05:12:05.699Z,10.90
2024-05-09T05:14:33.124Z,10.90
2024-05-09T05:17:03.058Z,11.00
2024-05-09T05:19:30.633Z,11.10
2024-05-09T05:22:00.685Z,11.20
2024-05-09T05:24:27.982Z,11.40
2024-05-09T05:27:00.815Z,11.60
2024-05-09T05:29:28.111Z,11.80
2024-05-09T05:31:58.456Z,11.70
2024-05-09T05:34:25.803Z,11.70
2024-05-09T05:36:56.040Z,11.80
2024-05-09T05:39:23.222Z,11.90
2024-05-09T05:41:53.147Z,11.90
2024-05-09T05:44:23.023Z,12.10
2024-05-09T05:46:53.775Z,12.30
2024-05-09T05:49:21.312Z,12.50
2024-05-09T05:51:51.544Z,12.70
2024-05-09T05:54:18.787Z,12.90
2024-05-09T05:56:49.343Z,13.00
2024-05-09T05:59:16.870Z,13.20
2024-05-09T06:01:49.498Z,13.40
2024-05-09T06:04:16.887Z,13.70
2024-05-09T06:06:46.792Z,13.80
2024-05-09T06:09:14.180Z,13.90
2024-05-09T06:11:45.586Z,14.50
2024-05-09T06:14:13.119Z,14.70
2024-05-09T06:16:44.003Z,14.70
2024-05-09T06:19:14.142Z,15.30
2024-05-09T06:21:44.212Z,17.10
2024-05-09T06:24:11.529Z,17.60
2024-05-09T06:26:45.030Z,18.50
2024-05-09T06:29:14.155Z,19.40
2024-05-09T06:31:46.315Z,20.40
2024-05-09T06:34:18.875Z,20.90
2024-05-09T06:36:49.395Z,20.90
2024-05-09T06:39:16.666Z,21.10
2024-05-09T06:41:46.861Z,21.60
2024-05-09T06:44:14.203Z,21.90
2024-05-09T06:46:44.089Z,22.40
2024-05-09T06:49:13.680Z,22.60
2024-05-09T06:51:46.955Z,22.90
2024-05-09T06:54:14.247Z,23.10
2024-05-09T06:56:44.544Z,23.70
2024-05-09T06:59:11.869Z,23.80
2024-05-09T07:01:42.035Z,23.50
2024-05-09T07:04:09.608Z,23.70
2024-05-09T07:06:39.676Z,24.20
2024-05-09T07:09:10.137Z,24.00
2024-05-09T07:11:40.693Z,23.70
2024-05-09T07:14:08.528Z,23.70
2024-05-09T07:16:38.373Z,23.60
2024-05-09T07:19:06.018Z,23.60
2024-05-09T07:21:36.673Z,24.10
2024-05-09T07:24:04.270Z,24.20
2024-05-09T07:26:38.546Z,24.20
2024-05-09T07:29:05.944Z,24.20
2024-05-09T07:31:36.011Z,24.30
2024-05-09T07:34:03.666Z,24.70
2024-05-09T07:36:33.658Z,24.60
2024-05-09T07:39:00.981Z,24.80
2024-05-09T07:41:33.623Z,25.30
2024-05-09T07:44:03.663Z,25.80
2024-05-09T07:50:53.283Z,25.90
2024-05-09T07:53:21.658Z,26.00
2024-05-09T07:54:41.260Z,26.10
2024-05-09T07:57:11.915Z,26.00
2024-05-09T07:59:41.791Z,26.50
2024-05-09T08:02:13.721Z,26.60
2024-05-09T08:04:41.267Z,26.40
2024-05-09T08:07:14.611Z,26.30
2024-05-09T08:09:42.005Z,26.50
2024-05-09T08:12:12.860Z,26.60
2024-05-09T08:14:42.767Z,26.60
2024-05-09T08:17:13.852Z,26.20
2024-05-09T08:19:42.016Z,25.70
2024-05-09T08:22:11.992Z,25.30
2024-05-09T08:24:39.418Z,25.30
2024-05-09T08:27:09.889Z,25.70
2024-05-09T08:29:37.266Z,26.30
2024-05-09T08:32:13.898Z,26.40
2024-05-09T08:34:41.197Z,26.00
2024-05-09T08:37:15.734Z,26.30
2024-05-09T08:39:48.762Z,26.60
2024-05-09T08:42:21.127Z,26.30
2024-05-09T08:44:49.413Z,26.30
2024-05-09T08:47:21.997Z,26.40
2024-05-09T08:49:50.885Z,26.20
2024-05-09T08:52:20.901Z,26.10
2024-05-09T08:54:48.303Z,26.10
2024-05-09T08:57:19.265Z,26.20
2024-05-09T08:59:50.933Z,26.40
2024-05-09T09:02:24.752Z,26.80
2024-05-09T09:05:00.352Z,27.00
2024-05-09T09:07:32.182Z,27.40
2024-05-09T09:10:00.707Z,27.40
2024-05-09T09:12:30.587Z,27.20
2024-05-09T09:15:01.181Z,27.50
2024-05-09T09:17:33.828Z,27.90
2024-05-09T09:20:01.940Z,27.50
2024-05-09T09:22:32.007Z,26.70
2024-05-09T09:24:59.301Z,26.80
2024-05-09T09:27:29.292Z,27.20
2024-05-09T09:29:57.121Z,27.20
2024-05-09T09:32:33.422Z,27.30
2024-05-09T09:35:00.882Z,27.10
2024-05-09T09:37:32.218Z,26.50
2024-05-09T09:39:59.827Z,26.40
2024-05-09T09:42:34.330Z,26.20
2024-05-09T09:45:05.506Z,26.10
2024-05-09T09:47:41.965Z,26.30
2024-05-09T09:50:14.441Z,26.50
2024-05-09T09:52:48.094Z,26.40
2024-05-09T09:55:16.064Z,27.50
2024-05-09T09:57:47.480Z,28.30
2024-05-09T10:00:24.079Z,28.10
2024-05-09T10:03:00.461Z,27.20
2024-05-09T10:05:28.841Z,26.60
2024-05-09T10:08:00.170Z,27.00
2024-05-09T10:10:32.389Z,27.10
2024-05-09T10:13:04.240Z,26.60
2024-05-09T10:15:42.026Z,26.30
2024-05-09T10:18:14.881Z,25.90
2024-05-09T10:20:43.056Z,25.30
2024-05-09T10:23:26.771Z,25.10
2024-05-09T10:26:01.030Z,24.80
2024-05-09T10:28:29.550Z,24.50
2024-05-09T10:31:09.959Z,24.40
2024-05-09T10:33:49.680Z,24.80
2024-05-09T10:36:21.511Z,26.00
2024-05-09T10:38:52.021Z,26.70
2024-05-09T10:41:20.635Z,27.00
2024-05-09T10:43:51.188Z,26.60
2024-05-09T10:46:22.039Z,26.40
2024-05-09T10:48:55.166Z,26.60
2024-05-09T10:51:22.539Z,26.60
2024-05-09T10:53:52.746Z,26.70
2024-05-09T10:56:20.338Z,26.90
2024-05-09T10:58:50.386Z,26.70
2024-05-09T11:01:18.292Z,26.60
2024-05-09T11:03:50.277Z,26.50
2024-05-09T11:06:20.944Z,26.20
2024-05-09T11:08:51.274Z,25.80
2024-05-09T11:11:20.877Z,26.20
2024-05-09T11:13:50.762Z,26.50
2024-05-09T11:16:20.033Z,26.90
2024-05-09T11:18:58.967Z,27.00
2024-05-09T11:21:29.646Z,27.10
2024-05-09T11:24:00.280Z,27.40
2024-05-09T11:26:29.486Z,27.90
2024-05-09T11:28:59.889Z,28.10
2024-05-09T11:31:27.477Z,27.90
2024-05-09T11:33:57.954Z,27.60
2024-05-09T11:36:25.235Z,27.60
2024-05-09T11:38:57.719Z,27.90
2024-05-09T11:41:27.186Z,28.10
2024-05-09T11:43:57.927Z,28.20
2024-05-09T11:46:25.618Z,28.40
2024-05-09T11:48:55.693Z,28.20
2024-05-09T11:51:23.085Z,27.80
2024-05-09T11:53:52.939Z,27.60
2024-05-09T11:56:22.845Z,27.60
2024-05-09T11:58:52.720Z,28.10
2024-05-09T12:01:20.326Z,28.50
2024-05-09T12:03:51.635Z,28.20
2024-05-09T12:06:19.084Z,27.90
2024-05-09T12:08:49.203Z,27.90
2024-05-09T12:11:16.928Z,27.70
2024-05-09T12:13:49.557Z,27.70
2024-05-09T12:16:17.192Z,27.70
2024-05-09T12:18:47.757Z,28.00
2024-05-09T12:21:17.502Z,28.30
2024-05-09T12:23:47.467Z,28.40
2024-05-09T12:26:16.369Z,28.60
2024-05-09T12:28:48.878Z,28.00
2024-05-09T12:31:16.250Z,27.80
2024-05-09T12:33:46.299Z,27.60
2024-05-09T12:36:14.276Z,27.30
2024-05-09T12:38:44.195Z,27.10
2024-05-09T12:41:11.924Z,26.90
2024-05-09T12:43:41.722Z,26.50
2024-05-09T12:46:11.970Z,26.30
2024-05-09T12:48:41.991Z,26.70
2024-05-09T12:51:09.711Z,27.30
2024-05-09T12:53:40.008Z,27.70
2024-05-09T12:56:09.475Z,28.10
2024-05-09T12:58:40.012Z,27.30
2024-05-09T13:01:07.367Z,26.60
2024-05-09T13:03:40.007Z,26.10
2024-05-09T13:06:07.480Z,25.70
2024-05-09T13:08:37.638Z,25.50
2024-05-09T13:11:05.878Z,26.00
2024-05-09T13:13:35.725Z,25.20
2024-05-09T13:16:03.435Z,24.60
2024-05-09T13:18:35.855Z,24.30
2024-05-09T13:21:06.029Z,25.00
2024-05-09T13:23:36.906Z,25.90
2024-05-09T13:26:05.249Z,26.70
2024-05-09T13:28:35.173Z,26.70
2024-05-09T13:31:02.748Z,26.50
2024-05-09T13:33:32.786Z,25.90
2024-05-09T13:36:00.636Z,25.90
2024-05-09T13:38:33.087Z,25.40
2024-05-09T13:41:00.508Z,24.50
2024-05-09T13:43:30.688Z,24.00
2024-05-09T13:46:04.158Z,23.60
2024-05-09T13:48:34.778Z,23.20
2024-05-09T13:51:02.628Z,23.20
2024-05-09T13:53:35.108Z,23.30
2024-05-09T13:56:02.423Z,23.40
2024-05-09T13:58:32.373Z,23.50
2024-05-09T14:01:00.203Z,23.30
2024-05-09T14:03:30.522Z,23.00
2024-05-09T14:05:58.552Z,23.00
2024-05-09T14:08:28.578Z,23.00
2024-05-09T14:10:58.651Z,23.00
2024-05-09T14:13:28.537Z,23.00
2024-05-09T14:15:56.402Z,23.00
2024-05-09T14:18:26.447Z,23.10
2024-05-09T14:20:53.731Z,23.10
2024-05-09T14:23:23.605Z,23.10
2024-05-09T14:25:53.339Z,22.90
2024-05-09T14:28:26.979Z,22.80
2024-05-09T14:30:56.613Z,22.70
2024-05-09T14:33:27.882Z,22.60
2024-05-09T14:35:55.429Z,22.60
2024-05-09T14:38:25.785Z,22.50
2024-05-09T14:40:53.463Z,22.50
2024-05-09T14:43:26.729Z,22.50
2024-05-09T14:45:54.288Z,22.50
2024-05-09T14:48:24.592Z,22.50
2024-05-09T14:50:51.792Z,22.50
2024-05-09T14:53:23.659Z,22.60
2024-05-09T14:55:50.973Z,22.60
2024-05-09T14:58:22.019Z,22.50
2024-05-09T15:00:52.326Z,22.50
2024-05-09T15:03:23.633Z,22.30
2024-05-09T15:05:51.903Z,22.30
2024-05-09T15:08:22.779Z,22.20
2024-05-09T15:10:50.821Z,22.20
2024-05-09T15:13:21.754Z,22.10
2024-05-09T15:15:51.900Z,22.00
2024-05-09T15:18:22.641Z,21.90
2024-05-09T15:20:50.180Z,21.70
2024-05-09T15:23:21.086Z,21.60
2024-05-09T15:25:48.320Z,21.50
2024-05-09T15:28:18.712Z,21.40
2024-05-09T15:30:47.068Z,21.40
2024-05-09T15:33:19.806Z,21.40
2024-05-09T15:35:47.413Z,21.40
2024-05-09T15:38:18.469Z,21.40
2024-05-09T15:40:46.236Z,21.40
2024-05-09T15:43:16.332Z,21.30
2024-05-09T15:45:43.648Z,21.20
2024-05-09T15:48:14.815Z,21.20
2024-05-09T15:50:45.206Z,21.20
2024-05-09T15:53:15.631Z,21.10
2024-05-09T15:55:43.375Z,20.90
2024-05-09T15:58:13.741Z,20.80
2024-05-09T16:00:44.043Z,20.80
2024-05-09T16:03:23.162Z,20.80
2024-05-09T16:05:53.224Z,20.70
2024-05-09T16:08:23.219Z,20.60
2024-05-09T16:10:51.210Z,20.50
2024-05-09T16:13:21.791Z,20.40
2024-05-09T16:15:49.722Z,20.40
2024-05-09T16:18:20.784Z,20.30
2024-05-09T16:20:50.059Z,20.30
2024-05-09T16:23:26.055Z,20.40
2024-05-09T16:25:53.302Z,20.40
2024-05-09T16:28:26.949Z,20.30
2024-05-09T16:30:54.517Z,20.30
2024-05-09T16:33:26.197Z,20.20
2024-05-09T16:35:54.209Z,20.20
2024-05-09T16:38:28.091Z,20.20
2024-05-09T16:40:55.338Z,20.20
2024-05-09T16:43:25.655Z,20.20
2024-05-09T16:45:53.031Z,20.10
2024-05-09T16:48:26.123Z,20.10
2024-05-09T16:50:53.354Z,20.10
2024-05-09T16:53:26.699Z,20.00
2024-05-09T16:55:54.187Z,20.00
2024-05-09T16:58:26.614Z,19.90
2024-05-09T17:00:53.992Z,19.90
2024-05-09T17:03:24.905Z,19.80
2024-05-09T17:05:52.388Z,19.80
2024-05-09T17:08:25.594Z,19.70
2024-05-09T17:10:55.952Z,19.70
2024-05-09T17:13:26.403Z,19.60
2024-05-09T17:15:56.275Z,19.50
2024-05-09T17:18:26.436Z,19.50
2024-05-09T17:20:53.653Z,19.40
2024-05-09T17:23:23.813Z,19.30
2024-05-09T17:25:51.024Z,19.20
2024-05-09T17:28:24.301Z,19.10
2024-05-09T17:30:51.537Z,19.00
2024-05-09T17:33:21.903Z,19.00
2024-05-09T17:35:51.283Z,18.90
2024-05-09T17:38:23.212Z,18.80
2024-05-09T17:40:52.025Z,18.70
2024-05-09T17:43:24.952Z,18.70
2024-05-09T17:45:52.375Z,18.50
2024-05-09T17:48:22.526Z,18.50
2024-05-09T17:50:51.515Z,18.40
2024-05-09T17:53:21.614Z,18.40
2024-05-09T17:55:48.890Z,18.30
2024-05-09T17:58:19.563Z,18.20
2024-05-09T18:00:49.633Z,18.10
2024-05-09T18:03:20.314Z,18.10
2024-05-09T18:05:47.791Z,18.00
2024-05-09T18:08:18.505Z,17.90
2024-05-09T18:10:45.841Z,17.80
2024-05-09T18:13:16.598Z,17.70
2024-05-09T18:15:45.206Z,17.60
2024-05-09T18:18:19.117Z,17.60
2024-05-09T18:20:46.703Z,17.40
2024-05-09T18:23:20.038Z,17.30
2024-05-09T18:25:48.119Z,17.30
2024-05-09T18:28:18.932Z,17.20
2024-05-09T18:30:46.415Z,17.10
2024-05-09T18:33:19.262Z,17.00
2024-05-09T18:35:46.624Z,16.90
2024-05-09T18:38:20.397Z,16.80
2024-05-09T18:40:49.370Z,16.70
2024-05-09T18:43:25.931Z,16.70
2024-05-09T18:45:56.654Z,16.50
2024-05-09T18:48:29.339Z,16.50
2024-05-09T18:50:56.694Z,16.40
2024-05-09T18:53:26.975Z,16.30
2024-05-09T18:55:54.278Z,16.20
2024-05-09T18:58:24.102Z,16.10
2024-05-09T19:00:54.267Z,16.10
2024-05-09T19:03:28.921Z,16.00
2024-05-09T19:05:56.462Z,16.00
2024-05-09T19:08:26.347Z,16.00
2024-05-09T19:10:54.122Z,16.00
2024-05-09T19:13:25.306Z,15.90
2024-05-09T19:15:52.893Z,15.90
2024-05-09T19:18:23.304Z,15.80
2024-05-09T19:20:53.308Z,15.80
2024-05-09T19:23:26.676Z,15.80
2024-05-09T19:25:54.072Z,15.80
2024-05-09T19:28:26.042Z,15.70
2024-05-09T19:30:53.492Z,15.70
2024-05-09T19:33:23.777Z,15.70
2024-05-09T19:35:54.095Z,15.60
2024-05-09T19:38:23.956Z,15.60
2024-05-09T19:40:51.254Z,15.60
2024-05-09T19:43:21.261Z,15.60
2024-05-09T19:45:48.821Z,15.50
2024-05-09T19:48:19.091Z,15.50
2024-05-09T19:50:48.316Z,15.50
2024-05-09T19:53:23.340Z,15.40
2024-05-09T19:55:50.688Z,15.50
2024-05-09T19:58:20.879Z,15.40
2024-05-09T20:00:49.797Z,15.40
2024-05-09T20:03:20.788Z,15.40
2024-05-09T20:05:48.617Z,15.30
2024-05-09T20:08:22.925Z,15.30
2024-05-09T20:10:50.305Z,15.20
2024-05-09T20:13:21.044Z,15.20
2024-05-09T20:15:49.177Z,15.10
2024-05-09T20:18:20.642Z,15.00
2024-05-09T20:20:49.838Z,15.00
2024-05-09T20:23:24.525Z,15.00
2024-05-09T20:25:51.710Z,14.90
2024-05-09T20:28:21.816Z,14.90
2024-05-09T20:30:49.307Z,14.90
2024-05-09T20:33:19.609Z,14.90
2024-05-09T20:35:46.859Z,14.90
2024-05-09T20:38:19.740Z,14.90
2024-05-09T20:40:49.688Z,14.90
2024-05-09T20:43:19.801Z,14.90
2024-05-09T20:45:47.096Z,14.90
2024-05-09T20:48:17.109Z,14.80
2024-05-09T20:50:44.605Z,14.90
2024-05-09T20:53:15.673Z,14.80
2024-05-09T20:55:43.705Z,14.70
2024-05-09T20:58:16.989Z,14.70
2024-05-09T21:00:45.859Z,14.70
2024-05-09T21:03:18.344Z,14.60
2024-05-09T21:05:46.067Z,14.50
2024-05-09T21:08:16.531Z,14.40
2024-05-09T21:10:43.905Z,14.30
2024-05-09T21:13:16.756Z,14.20
2024-05-09T21:15:44.057Z,14.20
2024-05-09T21:18:14.436Z,14.10
2024-05-09T21:20:41.774Z,14.10
2024-05-09T21:23:11.576Z,14.10
2024-05-09T21:25:38.795Z,14.10
2024-05-09T21:28:09.070Z,14.00
2024-05-09T21:30:43.219Z,14.00
2024-05-09T21:33:14.952Z,14.00
2024-05-09T21:35:42.962Z,13.90
2024-05-09T21:38:13.664Z,13.90
2024-05-09T21:40:41.738Z,13.80
2024-05-09T21:43:11.916Z,13.80
2024-05-09T21:45:42.286Z,13.80
2024-05-09T21:48:12.418Z,13.80
2024-05-09T21:50:44.842Z,14.00
2024-05-09T21:53:14.668Z,14.00
2024-05-09T21:55:44.951Z,13.90
2024-05-09T21:58:15.625Z,13.90
2024-05-09T22:00:46.702Z,14.00
2024-05-09T22:03:17.338Z,14.10
2024-05-09T22:05:45.555Z,14.00
2024-05-09T22:08:15.715Z,14.10
2024-05-09T22:10:43.120Z,14.00
2024-05-09T22:13:13.447Z,14.00
2024-05-09T22:15:41.112Z,14.10
2024-05-09T22:18:14.059Z,14.10
2024-05-09T22:20:45.456Z,14.00
2024-05-09T22:23:16.426Z,13.90
2024-05-09T22:25:43.855Z,13.90
2024-05-09T22:28:17.148Z,13.90
2024-05-09T22:30:47.307Z,13.80
2024-05-09T22:33:20.246Z,13.70
2024-05-09T22:35:48.173Z,13.60
2024-05-09T22:38:18.156Z,13.60
2024-05-09T22:40:48.986Z,13.60
2024-05-09T22:43:24.829Z,13.60
2024-05-09T22:45:53.770Z,13.60
2024-05-09T22:48:26.991Z,13.50
2024-05-09T22:50:55.128Z,13.50
2024-05-09T22:53:26.340Z,13.50
2024-05-09T22:55:54.586Z,13.60
2024-05-09T22:58:26.182Z,13.50
2024-05-09T23:00:53.652Z,13.50
2024-05-09T23:03:26.505Z,13.50
2024-05-09T23:05:54.717Z,13.40
2024-05-09T23:08:24.505Z,13.30
2024-05-09T23:10:52.227Z,13.20
2024-05-09T23:13:22.342Z,13.20
2024-05-09T23:15:50.253Z,13.10
2024-05-09T23:18:20.335Z,13.10
2024-05-09T23:20:51.658Z,13.10
2024-05-09T23:23:21.689Z,13.10
2024-05-09T23:25:49.822Z,13.00
2024-05-09T23:28:19.676Z,13.00
2024-05-09T23:30:49.618Z,13.00
2024-05-09T23:33:16.905Z,13.00
2024-05-09T23:35:47.219Z,13.00
2024-05-09T23:38:17.913Z,12.80
2024-05-09T23:40:49.081Z,12.70
2024-05-09T23:43:16.731Z,12.70
2024-05-09T23:45:47.145Z,12.70
2024-05-09T23:48:14.819Z,12.70
2024-05-09T23:50:44.838Z,12.60
2024-05-09T23:53:14.219Z,12.60
2024-05-09T23:55:46.852Z,12.60
2024-05-09T23:58:14.230Z,12.60
